BIG weather

Allen Army Airfield
Delta Junction Ft Greely, Alaska, United States

Public forecast

Using degrees Fahrenheit for public forecast. Weather courtesy of forecast.io.

METAR (pilot weather report)

Retrieved 2019/06/16 01:53 UTC (12 minutes ago):

PABI 160153Z 26006KT 10SM FEW070 BKN090 OVC200 19/08 A2981

TAF (pilot weather forecast)

Retrieved 2019/06/15 22:21 UTC (4 hours ago):

TAF PABI 152200Z 1522/1704 20009KT 9999 SCT050 SCT100 QNH2977INS TEMPO 1522/1601 VCTS SCT050CB BECMG 1612/1614 VRB06KT 9999 VCSH SCT045 QNH2973INS TEMPO 1701/1704 8000 -SHRA TX26/1523Z TN11/1613Z